Time;durP1;ratioP1;P1;durP2;ratioP2;P2;SDS_P1;SDS_P2;PMS_P1;PMS_P2;Temp;Humidity;BMP_temperature;BMP_pressure;BME280_temperature;BME280_humidity;BME280_pressure;Samples;Min_cycle;Max_cycle;Signal;HPM_P1;HPM_P2
2022/03/30 00:01:56;;;;;;;1.30;1.30;;;11.80;99.90;;;;;;5226877;28;20037;-76
2022/03/30 00:04:28;;;;;;;1.60;1.60;;;11.80;99.90;;;;;;5236366;28;20036;-76
2022/03/30 00:07:04;;;;;;;2.08;1.98;;;11.80;99.90;;;;;;5232907;28;20029;-77
2022/03/30 00:09:36;;;;;;;1.00;1.00;;;11.80;99.90;;;;;;5223329;28;20052;-74
2022/03/30 00:12:13;;;;;;;1.73;1.63;;;11.80;99.90;;;;;;5233225;28;20036;-76
2022/03/30 00:14:51;;;;;;;5.25;2.67;;;11.80;99.90;;;;;;5243238;28;20046;-76
2022/03/30 00:17:24;;;;;;;0.70;0.70;;;11.80;99.90;;;;;;5228515;28;20032;-76
2022/03/30 00:19:57;;;;;;;1.55;1.45;;;11.80;99.90;;;;;;5238779;28;20164;-76
2022/03/30 00:22:29;;;;;;;2.08;1.98;;;11.70;99.90;;;;;;5242775;28;20036;-77
2022/03/30 00:25:06;;;;;;;2.47;1.85;;;11.70;99.90;;;;;;5242641;28;20062;-78
2022/03/30 00:27:46;;;;;;;1.08;1.08;;;11.70;99.90;;;;;;5240835;28;20467;-77
2022/03/30 00:30:20;;;;;;;1.73;1.63;;;11.70;99.90;;;;;;5242310;28;20375;-77
2022/03/30 00:32:57;;;;;;;0.82;0.82;;;11.60;99.90;;;;;;5241311;28;20033;-78
2022/03/30 00:35:31;;;;;;;1.05;1.05;;;11.60;99.90;;;;;;5238622;28;20047;-79
2022/03/30 00:38:10;;;;;;;2.13;1.92;;;11.60;99.90;;;;;;5233414;28;20330;-76
2022/03/30 00:40:42;;;;;;;1.83;1.30;;;11.60;99.90;;;;;;5236246;28;20051;-77
2022/03/30 00:43:19;;;;;;;1.25;1.15;;;11.60;99.90;;;;;;5233770;28;20051;-78
2022/03/30 00:45:53;;;;;;;0.77;0.77;;;11.50;99.90;;;;;;5219951;28;20036;-78
2022/03/30 00:48:24;;;;;;;1.48;1.48;;;11.50;99.90;;;;;;5220595;28;20409;-77
2022/03/30 00:50:56;;;;;;;1.85;1.80;;;11.50;99.90;;;;;;5232698;28;20029;-77
2022/03/30 00:53:28;;;;;;;1.33;1.33;;;11.50;99.90;;;;;;5220771;28;20048;-77
2022/03/30 00:56:01;;;;;;;1.67;1.58;;;11.50;99.90;;;;;;5225561;28;20048;-79
2022/03/30 00:58:36;;;;;;;1.77;1.70;;;11.40;99.90;;;;;;5243810;28;20039;-78
2022/03/30 01:01:08;;;;;;;1.23;1.23;;;11.40;99.90;;;;;;5243386;28;20246;-78
2022/03/30 01:03:41;;;;;;;0.88;0.88;;;11.40;99.90;;;;;;5244337;28;20248;-78
2022/03/30 01:06:18;;;;;;;0.88;0.88;;;11.30;99.90;;;;;;5214825;28;20037;-79
2022/03/30 01:08:53;;;;;;;1.85;1.58;;;11.10;99.90;;;;;;5216405;28;20040;-78
2022/03/30 01:11:29;;;;;;;0.80;0.80;;;11.00;99.90;;;;;;5207266;28;20044;-78
2022/03/30 01:14:03;;;;;;;1.30;1.30;;;11.00;99.90;;;;;;5222570;28;20037;-77
2022/03/30 01:16:40;;;;;;;0.95;0.95;;;11.00;99.90;;;;;;5206506;28;20160;-77
2022/03/30 01:19:14;;;;;;;1.10;1.10;;;11.00;99.90;;;;;;5221613;28;20043;-79
2022/03/30 01:21:46;;;;;;;2.03;1.92;;;11.00;99.90;;;;;;5224011;28;20059;-75
2022/03/30 01:24:25;;;;;;;2.20;2.10;;;10.90;99.90;;;;;;5216839;28;20033;-78
2022/03/30 01:26:57;;;;;;;0.75;0.75;;;10.80;99.90;;;;;;5203045;28;20040;-75
2022/03/30 01:32:27;;;;;;;;;;;10.70;99.90;;;;;;5210790;28;20238;-77
2022/03/30 01:35:01;;;;;;;1.35;1.35;;;10.60;99.90;;;;;;5200393;28;19931;-77
2022/03/30 01:37:36;;;;;;;2.85;2.75;;;10.50;99.90;;;;;;5227025;28;20037;-76
2022/03/30 01:40:08;;;;;;;0.88;0.88;;;10.40;99.90;;;;;;5225503;28;20033;-75
2022/03/30 01:42:40;;;;;;;1.02;1.02;;;10.40;99.90;;;;;;5233375;28;20073;-76
2022/03/30 01:45:15;;;;;;;1.75;1.23;;;10.30;99.90;;;;;;5217742;28;20116;-78
2022/03/30 01:47:50;;;;;;;1.90;1.80;;;10.30;99.90;;;;;;5203485;28;20055;-75
2022/03/30 01:50:32;;;;;;;1.35;1.35;;;10.20;99.90;;;;;;5203413;28;20041;-78
2022/03/30 01:53:07;;;;;;;1.75;1.65;;;10.10;99.90;;;;;;5218309;28;20028;-79
2022/03/30 01:55:42;;;;;;;1.55;1.55;;;10.00;99.90;;;;;;5226065;28;20040;-76
2022/03/30 01:58:19;;;;;;;1.95;1.85;;;10.00;99.90;;;;;;5240883;28;20044;-77
2022/03/30 02:00:53;;;;;;;1.38;1.38;;;10.00;99.90;;;;;;5224199;28;20032;-77
2022/03/30 02:03:27;;;;;;;1.48;1.38;;;9.90;99.90;;;;;;5211147;28;20033;-78
2022/03/30 02:06:05;;;;;;;1.48;1.48;;;9.90;99.90;;;;;;5217276;28;20054;-78
2022/03/30 02:08:36;;;;;;;1.20;1.15;;;9.90;99.90;;;;;;5201597;28;20337;-78
2022/03/30 02:11:08;;;;;;;1.50;1.45;;;10.00;99.90;;;;;;5215658;28;20067;-76
2022/03/30 02:13:44;;;;;;;1.00;1.00;;;10.00;99.90;;;;;;5205968;28;20059;-78
2022/03/30 02:16:19;;;;;;;0.90;0.90;;;10.00;99.90;;;;;;5208632;28;20037;-76
2022/03/30 02:18:51;;;;;;;0.70;0.70;;;10.00;99.90;;;;;;5206785;28;20037;-77
2022/03/30 02:21:28;;;;;;;1.13;1.13;;;10.00;99.90;;;;;;5223159;28;20036;-78
2022/03/30 02:24:02;;;;;;;0.98;0.98;;;10.10;99.90;;;;;;5218165;28;20049;-75
2022/03/30 02:26:38;;;;;;;0.85;0.85;;;10.10;99.90;;;;;;5201375;28;20029;-77
2022/03/30 02:29:09;;;;;;;0.90;0.90;;;10.10;99.90;;;;;;5193814;28;20548;-77
2022/03/30 02:31:42;;;;;;;1.17;1.17;;;10.20;99.90;;;;;;5221819;28;20185;-77
2022/03/30 02:34:19;;;;;;;2.50;2.30;;;10.10;99.90;;;;;;5216538;28;20525;-76
2022/03/30 02:36:53;;;;;;;0.80;0.80;;;10.10;99.90;;;;;;5212746;28;20037;-76
2022/03/30 02:39:25;;;;;;;1.15;1.15;;;10.00;99.90;;;;;;5221863;28;20067;-77
2022/03/30 02:41:56;;;;;;;1.45;1.45;;;9.90;99.90;;;;;;5222912;28;20045;-77
2022/03/30 02:44:28;;;;;;;0.98;0.98;;;9.80;99.90;;;;;;5222792;28;20033;-76
2022/03/30 02:47:01;;;;;;;0.90;0.90;;;9.70;99.90;;;;;;5223136;28;20024;-76
2022/03/30 02:49:33;;;;;;;0.88;0.88;;;9.70;99.90;;;;;;5221474;28;20234;-76
2022/03/30 02:52:05;;;;;;;3.85;1.65;;;9.70;99.90;;;;;;5192743;28;20407;-76
2022/03/30 02:54:45;;;;;;;1.15;1.15;;;9.60;99.90;;;;;;5206519;28;20100;-76
2022/03/30 02:57:21;;;;;;;1.00;1.00;;;9.60;99.90;;;;;;5201779;28;20026;-77
2022/03/30 02:59:53;;;;;;;1.05;1.05;;;9.60;99.90;;;;;;5219270;28;20029;-76
2022/03/30 03:02:27;;;;;;;0.80;0.80;;;9.50;99.90;;;;;;5218628;28;20039;-78
2022/03/30 03:04:58;;;;;;;0.82;0.82;;;9.50;99.90;;;;;;5221728;28;20346;-78
2022/03/30 03:07:30;;;;;;;1.02;1.02;;;9.40;99.90;;;;;;5230021;28;20036;-77
2022/03/30 03:10:03;;;;;;;0.90;0.90;;;9.40;99.90;;;;;;5234752;28;20032;-77
2022/03/30 03:12:34;;;;;;;1.77;1.73;;;9.30;99.90;;;;;;5247401;28;20036;-78
2022/03/30 03:15:06;;;;;;;1.70;1.60;;;9.30;99.90;;;;;;5245992;28;20542;-76
2022/03/30 03:17:43;;;;;;;1.75;1.65;;;9.20;99.90;;;;;;5214901;28;20250;-75
2022/03/30 03:20:17;;;;;;;0.85;0.85;;;9.10;99.90;;;;;;5228488;28;20336;-77
2022/03/30 03:22:54;;;;;;;1.33;1.33;;;9.10;99.90;;;;;;5231046;28;20274;-77
2022/03/30 03:25:37;;;;;;;1.33;1.33;;;9.00;99.90;;;;;;5261484;28;20167;-78
2022/03/30 03:28:11;;;;;;;1.30;1.30;;;9.00;99.90;;;;;;5230756;28;20039;-78
2022/03/30 03:30:47;;;;;;;0.63;0.63;;;9.00;99.90;;;;;;5264518;28;20048;-77
2022/03/30 03:33:19;;;;;;;2.28;1.67;;;9.00;99.90;;;;;;5264721;28;20062;-78
2022/03/30 03:35:52;;;;;;;1.63;1.52;;;8.90;99.90;;;;;;5258836;28;20030;-77
2022/03/30 03:38:26;;;;;;;2.03;1.92;;;9.00;99.90;;;;;;5260591;28;20343;-76
2022/03/30 03:41:00;;;;;;;1.65;1.63;;;9.00;99.90;;;;;;5256546;28;20024;-78
2022/03/30 03:43:31;;;;;;;0.93;0.93;;;9.00;99.90;;;;;;5246458;28;20042;-77
2022/03/30 03:46:11;;;;;;;2.80;2.60;;;9.00;99.90;;;;;;5247729;28;20048;-77
2022/03/30 03:48:42;;;;;;;0.90;0.90;;;9.10;99.90;;;;;;5264854;28;20038;-77
2022/03/30 03:51:19;;;;;;;2.10;2.00;;;9.20;99.90;;;;;;5247927;28;20046;-77
2022/03/30 03:53:53;;;;;;;0.90;0.90;;;9.20;99.90;;;;;;5265250;28;20031;-77
2022/03/30 03:56:32;;;;;;;1.50;1.50;;;9.20;99.90;;;;;;5264554;28;20396;-77
2022/03/30 03:59:04;;;;;;;2.47;2.30;;;9.10;99.90;;;;;;5245767;28;20544;-77
2022/03/30 04:01:38;;;;;;;1.88;1.80;;;9.10;99.90;;;;;;5250836;28;20049;-76
2022/03/30 04:04:12;;;;;;;2.20;2.05;;;9.00;99.90;;;;;;5230022;28;20052;-77
2022/03/30 04:06:44;;;;;;;1.58;1.58;;;9.00;99.90;;;;;;5207999;28;20047;-77
2022/03/30 04:09:16;;;;;;;1.33;1.33;;;8.90;99.90;;;;;;5225532;28;20297;-78
2022/03/30 04:11:52;;;;;;;1.00;1.00;;;8.90;99.90;;;;;;5191373;28;20041;-75
2022/03/30 04:14:26;;;;;;;1.00;1.00;;;8.90;99.90;;;;;;5227447;28;20309;-77
2022/03/30 04:17:03;;;;;;;1.33;1.33;;;8.80;99.90;;;;;;5228219;28;20037;-78
2022/03/30 04:19:38;;;;;;;0.77;0.77;;;8.80;99.90;;;;;;5242071;28;20056;-77
2022/03/30 04:22:12;;;;;;;2.15;1.67;;;8.70;99.90;;;;;;5227184;28;20043;-77
2022/03/30 04:24:50;;;;;;;1.65;1.58;;;8.70;99.90;;;;;;5238563;28;20025;-78
2022/03/30 04:27:21;;;;;;;1.50;1.50;;;8.70;99.90;;;;;;5223599;28;20323;-78
2022/03/30 04:29:54;;;;;;;1.83;1.75;;;8.80;99.90;;;;;;5232887;28;20047;-77
2022/03/30 04:32:30;;;;;;;1.70;1.65;;;8.80;99.90;;;;;;5243699;28;20031;-78
2022/03/30 04:35:11;;;;;;;1.25;1.15;;;8.90;99.90;;;;;;5245179;28;20036;-78
2022/03/30 04:37:45;;;;;;;1.63;1.55;;;8.90;99.90;;;;;;5240462;28;20311;-78
2022/03/30 04:40:17;;;;;;;2.85;2.65;;;8.90;99.90;;;;;;5243638;28;20025;-78
2022/03/30 04:42:51;;;;;;;1.35;1.35;;;9.00;99.90;;;;;;5247782;28;20061;-77
2022/03/30 04:45:23;;;;;;;2.15;2.05;;;8.90;99.90;;;;;;5237481;28;20037;-78
2022/03/30 04:47:57;;;;;;;1.15;1.15;;;8.80;99.90;;;;;;5224170;28;20228;-77
2022/03/30 04:50:32;;;;;;;1.08;1.08;;;8.70;99.90;;;;;;5234113;28;20040;-79
2022/03/30 04:53:04;;;;;;;1.30;1.30;;;8.70;99.90;;;;;;5238494;28;20034;-77
2022/03/30 04:55:36;;;;;;;1.67;1.58;;;8.70;99.90;;;;;;5228693;28;20048;-78
2022/03/30 04:58:10;;;;;;;1.05;1.05;;;8.70;99.90;;;;;;5250525;28;20044;-76
2022/03/30 05:00:42;;;;;;;1.85;1.75;;;8.80;99.90;;;;;;5234995;28;20032;-78
2022/03/30 05:03:16;;;;;;;2.80;2.60;;;8.90;99.90;;;;;;5242472;28;20028;-75
2022/03/30 05:05:48;;;;;;;1.02;1.02;;;9.00;99.90;;;;;;5239029;28;20055;-77
2022/03/30 05:08:23;;;;;;;0.82;0.82;;;9.10;99.90;;;;;;5248706;28;20037;-76
2022/03/30 05:11:00;;;;;;;1.50;1.40;;;9.10;99.90;;;;;;5257323;28;20493;-76
2022/03/30 05:13:31;;;;;;;1.65;1.63;;;9.20;99.90;;;;;;5253697;28;20318;-77
2022/03/30 05:16:09;;;;;;;1.83;1.73;;;9.40;99.90;;;;;;5251647;28;20048;-77
2022/03/30 05:18:48;;;;;;;3.25;3.05;;;9.50;99.90;;;;;;5244896;28;20039;-77
2022/03/30 05:21:20;;;;;;;1.23;1.23;;;9.50;99.90;;;;;;5240478;28;20037;-77
2022/03/30 05:23:54;;;;;;;1.38;1.38;;;9.50;99.90;;;;;;5222646;28;20051;-76
2022/03/30 05:26:28;;;;;;;1.92;1.85;;;9.60;99.90;;;;;;5228374;28;20059;-77
2022/03/30 05:29:03;;;;;;;1.10;1.10;;;9.60;99.90;;;;;;5230027;28;20044;-77
2022/03/30 05:31:40;;;;;;;1.85;1.75;;;9.70;99.90;;;;;;5237709;28;20047;-77
2022/03/30 05:34:16;;;;;;;1.48;1.38;;;9.70;99.90;;;;;;5222063;28;20037;-77
2022/03/30 05:36:48;;;;;;;0.85;0.85;;;9.80;99.90;;;;;;5231954;28;20071;-76
2022/03/30 05:39:19;;;;;;;2.03;1.92;;;9.90;99.90;;;;;;5203204;28;20053;-78
2022/03/30 05:41:54;;;;;;;1.73;1.63;;;10.10;99.90;;;;;;5221390;28;20052;-77
2022/03/30 05:44:26;;;;;;;1.02;1.02;;;10.10;99.90;;;;;;5235743;28;20020;-77
2022/03/30 05:46:57;;;;;;;1.20;1.20;;;10.10;99.90;;;;;;5223140;28;20043;-77
2022/03/30 05:49:29;;;;;;;0.95;0.95;;;10.10;99.90;;;;;;5234210;28;20048;-76
2022/03/30 05:52:01;;;;;;;1.75;1.65;;;10.20;99.90;;;;;;5215203;28;20125;-77
2022/03/30 05:54:35;;;;;;;1.40;1.40;;;10.30;99.90;;;;;;5228036;28;20304;-77
2022/03/30 05:57:10;;;;;;;;;;;10.50;99.90;;;;;;5223470;28;20048;-77
2022/03/30 05:59:45;;;;;;;1.25;1.25;;;10.60;99.90;;;;;;5231548;28;19920;-75
2022/03/30 06:02:17;;;;;;;2.17;2.08;;;10.70;99.90;;;;;;5229014;28;20029;-76
2022/03/30 06:04:53;;;;;;;1.63;1.58;;;10.80;99.90;;;;;;5210471;28;20063;-77
2022/03/30 06:07:25;;;;;;;1.33;1.27;;;10.90;99.90;;;;;;5210338;28;20339;-78
2022/03/30 06:10:02;;;;;;;0.80;0.80;;;11.00;99.90;;;;;;5229124;28;20067;-77
2022/03/30 06:12:35;;;;;;;1.08;1.08;;;11.00;99.90;;;;;;5221131;28;20328;-78
2022/03/30 06:15:09;;;;;;;2.35;2.25;;;11.10;99.90;;;;;;5227377;28;20033;-76
2022/03/30 06:17:42;;;;;;;1.80;1.70;;;11.30;99.90;;;;;;5237303;28;20054;-77
2022/03/30 06:20:14;;;;;;;2.50;2.30;;;11.50;99.90;;;;;;5233176;28;20044;-77
2022/03/30 06:22:48;;;;;;;2.33;2.22;;;11.70;99.90;;;;;;5233809;28;20037;-77
2022/03/30 06:25:29;;;;;;;1.48;1.45;;;11.80;99.90;;;;;;5226626;28;20055;-77
2022/03/30 06:28:06;;;;;;;1.75;1.65;;;12.00;99.90;;;;;;5231134;28;20055;-78
2022/03/30 06:30:38;;;;;;;2.05;1.95;;;12.20;99.90;;;;;;5233506;28;20044;-76
2022/03/30 06:33:09;;;;;;;1.60;1.50;;;12.40;99.90;;;;;;5239736;28;20362;-78
2022/03/30 06:35:41;;;;;;;1.25;1.25;;;12.50;99.90;;;;;;5224798;28;20055;-77
2022/03/30 06:38:15;;;;;;;0.77;0.77;;;12.70;99.90;;;;;;5237248;28;20033;-77
2022/03/30 06:40:47;;;;;;;1.00;1.00;;;12.90;99.90;;;;;;5234222;28;20032;-77
2022/03/30 06:43:19;;;;;;;1.58;1.48;;;13.30;99.90;;;;;;5236972;28;20044;-77
2022/03/30 06:45:50;;;;;;;1.00;1.00;;;13.60;99.90;;;;;;5219478;28;20044;-76
2022/03/30 06:48:24;;;;;;;1.13;1.13;;;13.80;99.90;;;;;;5238419;28;20229;-75
2022/03/30 06:50:57;;;;;;;2.15;2.05;;;14.10;99.90;;;;;;5232126;28;20277;-76
2022/03/30 06:53:32;;;;;;;1.45;1.42;;;14.30;99.90;;;;;;5245343;28;20041;-79
2022/03/30 06:56:10;;;;;;;2.22;2.13;;;14.40;99.90;;;;;;5233543;28;20230;-77
2022/03/30 06:58:41;;;;;;;2.67;2.50;;;14.70;99.90;;;;;;5233597;28;20040;-78
2022/03/30 07:01:20;;;;;;;2.50;2.35;;;14.90;99.90;;;;;;5226435;28;20243;-76
2022/03/30 07:03:55;;;;;;;1.65;1.55;;;15.30;99.90;;;;;;5220040;28;20432;-78
2022/03/30 07:06:29;;;;;;;3.00;2.80;;;15.60;99.90;;;;;;5233597;28;20052;-76
2022/03/30 07:11:54;;;;;;;3.35;3.15;;;15.40;99.90;;;;;;5220881;28;20055;-75
2022/03/30 07:14:30;;;;;;;1.13;1.13;;;15.00;99.90;;;;;;5247742;28;20053;-77
2022/03/30 07:17:02;;;;;;;2.38;2.25;;;14.90;99.90;;;;;;5238898;28;20028;-78
2022/03/30 07:19:38;;;;;;;5.05;3.17;;;14.90;99.90;;;;;;5226620;28;20516;-76
2022/03/30 07:22:18;;;;;;;2.15;2.05;;;15.00;99.90;;;;;;5235294;28;20055;-76
2022/03/30 07:25:00;;;;;;;1.52;1.42;;;15.40;99.90;;;;;;5231894;28;20036;-76
2022/03/30 07:27:32;;;;;;;2.13;1.92;;;15.20;99.90;;;;;;5226517;28;20043;-77
2022/03/30 07:30:09;;;;;;;1.42;1.40;;;14.70;99.90;;;;;;5227599;28;20041;-77
2022/03/30 07:32:59;;;;;;;1.50;1.40;;;14.70;99.90;;;;;;5231861;28;20037;-76
2022/03/30 07:35:39;;;;;;;3.40;3.20;;;14.20;99.90;;;;;;5236520;28;20028;-76
2022/03/30 07:38:18;;;;;;;1.65;1.55;;;14.30;99.90;;;;;;5240296;28;20029;-78
2022/03/30 07:40:50;;;;;;;1.73;1.65;;;14.50;99.90;;;;;;5229069;28;20262;-76
2022/03/30 07:43:22;;;;;;;3.22;2.45;;;14.80;99.90;;;;;;5223937;28;20192;-77
2022/03/30 07:45:54;;;;;;;1.35;1.35;;;15.20;99.90;;;;;;5246271;28;20052;-76
2022/03/30 07:48:28;;;;;;;1.00;1.00;;;15.50;99.90;;;;;;5241305;28;20041;-76
2022/03/30 07:51:04;;;;;;;;;;;15.50;99.90;;;;;;5233081;28;20125;-77
2022/03/30 07:53:36;;;;;;;1.95;1.85;;;15.50;99.90;;;;;;5230109;28;19912;-78
2022/03/30 07:56:08;;;;;;;1.75;1.65;;;15.30;99.90;;;;;;5231247;28;20029;-78
2022/03/30 07:58:42;;;;;;;1.25;1.25;;;15.60;99.90;;;;;;5243441;28;20049;-79
2022/03/30 08:01:17;;;;;;;2.40;2.22;;;15.80;99.90;;;;;;5236741;28;20056;-76
2022/03/30 08:03:56;;;;;;;2.33;2.22;;;16.20;99.90;;;;;;5224703;28;20260;-78
2022/03/30 08:06:31;;;;;;;1.60;1.50;;;15.80;99.90;;;;;;5232981;28;20383;-77
2022/03/30 08:09:07;;;;;;;2.40;2.30;;;16.00;99.90;;;;;;5242951;28;20240;-77
2022/03/30 08:11:39;;;;;;;3.92;3.08;;;15.60;99.90;;;;;;5239043;28;20044;-78
2022/03/30 08:14:13;;;;;;;1.08;1.05;;;15.60;99.90;;;;;;5243744;28;20059;-77
2022/03/30 08:16:46;;;;;;;1.35;1.35;;;15.60;99.90;;;;;;5240502;28;20044;-78
2022/03/30 08:19:20;;;;;;;1.13;1.13;;;15.10;99.90;;;;;;5210531;28;20372;-79
2022/03/30 08:24:46;;;;;;;2.28;2.10;;;15.70;99.90;;;;;;5231474;28;20551;-79
2022/03/30 08:27:25;;;;;;;14.93;3.05;;;15.20;99.90;;;;;;5228719;28;20040;-79
2022/03/30 08:30:03;;;;;;;3.55;3.33;;;15.70;99.90;;;;;;5233927;28;20055;-78
2022/03/30 08:32:34;;;;;;;1.02;0.95;;;15.90;99.90;;;;;;5228640;28;20040;-76
2022/03/30 08:35:10;;;;;;;1.15;1.15;;;16.00;99.90;;;;;;5251331;28;20041;-77
2022/03/30 08:37:42;;;;;;;2.33;2.22;;;16.30;99.90;;;;;;5245053;28;20040;-78
2022/03/30 08:40:14;;;;;;;2.42;2.30;;;16.10;99.90;;;;;;5233458;28;20055;-78
2022/03/30 08:42:46;;;;;;;1.92;1.83;;;16.20;99.90;;;;;;5213461;28;20342;-78
2022/03/30 08:45:21;;;;;;;2.13;2.03;;;16.40;99.90;;;;;;5224059;28;20413;-79
2022/03/30 08:47:55;;;;;;;2.05;1.98;;;16.90;99.90;;;;;;5249492;28;20330;-77
2022/03/30 08:50:32;;;;;;;;;;;17.30;99.90;;;;;;5226691;28;20049;-79
2022/03/30 08:53:15;;;;;;;1.85;1.45;;;17.70;99.90;;;;;;5238852;28;19916;-79
2022/03/30 08:55:49;;;;;;;1.63;1.38;;;17.90;99.90;;;;;;5232602;28;20048;-79
2022/03/30 08:58:26;;;;;;;1.85;1.75;;;18.10;99.90;;;;;;5232906;28;20044;-77
2022/03/30 09:01:13;;;;;;;3.45;3.15;;;18.00;99.90;;;;;;5240053;28;20266;-75
2022/03/30 09:04:02;;;;;;;0.98;0.98;;;17.90;99.90;;;;;;5232030;28;20046;-76
2022/03/30 09:06:57;;;;;;;2.03;1.92;;;18.30;99.90;;;;;;5214179;28;20063;-77
2022/03/30 09:09:35;;;;;;;1.92;1.25;;;18.30;99.90;;;;;;5230719;28;20537;-75
2022/03/30 09:12:12;;;;;;;1.00;1.00;;;18.50;99.90;;;;;;5232943;28;20033;-75
2022/03/30 09:14:44;;;;;;;2.65;2.45;;;18.40;99.90;;;;;;5225591;28;20047;-76
2022/03/30 09:17:16;;;;;;;1.38;1.35;;;17.40;99.90;;;;;;5218484;28;20040;-77
2022/03/30 09:19:56;;;;;;;1.20;1.20;;;17.70;99.90;;;;;;5219586;28;20037;-79
2022/03/30 09:22:28;;;;;;;1.75;1.73;;;17.70;99.90;;;;;;5229349;28;20042;-77
2022/03/30 09:25:02;;;;;;;1.50;1.50;;;17.30;99.90;;;;;;5226011;28;20033;-78
2022/03/30 09:27:34;;;;;;;2.15;1.95;;;17.40;99.90;;;;;;5228275;28;20052;-78
2022/03/30 09:30:15;;;;;;;1.80;1.73;;;17.40;99.90;;;;;;5232155;28;20044;-79
2022/03/30 09:32:51;;;;;;;6.13;3.63;;;17.30;99.90;;;;;;5221756;28;20063;-78
2022/03/30 09:35:41;;;;;;;1.58;1.58;;;17.40;99.90;;;;;;5231589;28;20040;-76
2022/03/30 09:38:21;;;;;;;2.42;2.33;;;17.30;99.90;;;;;;5225829;28;20075;-76
2022/03/30 09:41:01;;;;;;;5.60;2.90;;;17.50;99.90;;;;;;5201923;28;20040;-77
2022/03/30 09:43:39;;;;;;;1.63;1.52;;;17.30;99.90;;;;;;5196009;28;20083;-76
2022/03/30 09:46:13;;;;;;;2.03;1.85;;;17.60;99.90;;;;;;5226462;28;20936;-75
2022/03/30 09:48:53;;;;;;;2.33;2.13;;;17.60;99.90;;;;;;5214764;28;20041;-77
2022/03/30 09:51:29;;;;;;;1.75;1.70;;;17.90;99.90;;;;;;5231946;28;20032;-76
2022/03/30 09:54:07;;;;;;;1.00;1.00;;;17.10;99.90;;;;;;5223880;28;20459;-75
2022/03/30 09:56:44;;;;;;;1.40;1.38;;;17.50;99.90;;;;;;5211452;28;20041;-76
2022/03/30 09:59:24;;;;;;;1.73;1.67;;;17.80;99.90;;;;;;5221010;28;20210;-77
2022/03/30 10:02:05;;;;;;;1.35;1.35;;;17.70;99.90;;;;;;5231443;28;20458;-77
2022/03/30 10:04:37;;;;;;;4.00;1.92;;;17.80;99.90;;;;;;5218410;28;20109;-76
2022/03/30 10:07:17;;;;;;;3.10;1.83;;;18.00;99.90;;;;;;5193696;28;20059;-78
2022/03/30 10:09:51;;;;;;;1.70;1.60;;;17.90;99.90;;;;;;5226535;28;20033;-77
2022/03/30 10:12:28;;;;;;;2.10;2.00;;;17.30;99.90;;;;;;5234419;28;20040;-78
2022/03/30 10:15:07;;;;;;;1.48;1.40;;;17.20;99.90;;;;;;5192658;28;20057;-77
2022/03/30 10:17:41;;;;;;;2.05;1.95;;;17.20;99.90;;;;;;5229803;28;20041;-79
2022/03/30 10:20:22;;;;;;;1.85;1.73;;;17.80;99.90;;;;;;5211419;28;20044;-79
2022/03/30 10:23:22;;;;;;;1.88;1.77;;;17.90;99.90;;;;;;5227294;28;20082;-79
2022/03/30 10:26:15;;;;;;;2.60;2.45;;;18.10;99.90;;;;;;5226295;28;20396;-77
2022/03/30 10:29:05;;;;;;;3.30;3.00;;;18.20;99.90;;;;;;5225855;28;20037;-76
2022/03/30 10:31:39;;;;;;;1.30;1.30;;;18.20;99.90;;;;;;5213960;28;20059;-76
2022/03/30 10:34:27;;;;;;;1.98;1.88;;;18.40;99.90;;;;;;5227207;28;20032;-77
2022/03/30 10:37:09;;;;;;;3.30;3.08;;;18.30;99.90;;;;;;5198114;28;20562;-76
2022/03/30 10:40:23;;;;;;;2.85;2.65;;;18.50;99.90;;;;;;5189105;28;20053;-77
2022/03/30 10:43:09;;;;;;;2.25;2.13;;;19.00;99.90;;;;;;5207466;28;20054;-75
2022/03/30 10:45:49;;;;;;;6.18;2.05;;;18.90;99.90;;;;;;5201551;28;20371;-76
2022/03/30 10:48:33;;;;;;;2.72;2.55;;;18.50;99.90;;;;;;5214690;28;20056;-78
2022/03/30 10:51:15;;;;;;;1.52;1.52;;;18.80;99.90;;;;;;5225030;28;20033;-75
2022/03/30 10:53:52;;;;;;;1.70;1.65;;;19.00;99.90;;;;;;5215409;28;20047;-79
2022/03/30 10:56:30;;;;;;;0.98;0.90;;;19.20;99.90;;;;;;5231613;28;20047;-73
2022/03/30 10:59:09;;;;;;;1.95;1.83;;;19.20;99.90;;;;;;5223016;28;20028;-75
2022/03/30 11:01:46;;;;;;;2.00;1.90;;;19.30;99.90;;;;;;5207691;28;20032;-76
2022/03/30 11:04:25;;;;;;;2.35;2.15;;;19.60;99.90;;;;;;5216968;28;21233;-77
2022/03/30 11:06:59;;;;;;;0.50;0.50;;;19.60;99.90;;;;;;5207315;28;20639;-76
2022/03/30 11:09:35;;;;;;;2.20;2.03;;;19.20;99.90;;;;;;5232926;28;20048;-75
2022/03/30 11:12:13;;;;;;;2.47;2.30;;;19.60;99.90;;;;;;5213325;28;20058;-75
2022/03/30 11:15:01;;;;;;;1.80;1.70;;;19.50;99.90;;;;;;5226592;28;20055;-74
2022/03/30 11:17:40;;;;;;;2.70;2.50;;;19.10;99.90;;;;;;5219220;28;20036;-76
2022/03/30 11:20:25;;;;;;;3.45;1.60;;;19.10;99.90;;;;;;5226497;28;20040;-77
2022/03/30 11:23:20;;;;;;;3.60;1.70;;;19.30;99.90;;;;;;5231893;28;20037;-75
2022/03/30 11:25:57;;;;;;;2.42;1.83;;;20.30;99.90;;;;;;5202547;28;20049;-76
2022/03/30 11:28:40;;;;;;;2.60;2.40;;;20.00;99.90;;;;;;5222336;28;20044;-76
2022/03/30 11:31:28;;;;;;;1.90;1.75;;;20.00;99.90;;;;;;5234755;28;20257;-77
2022/03/30 11:34:38;;;;;;;0.77;0.77;;;20.20;99.90;;;;;;5214780;28;20047;-77
2022/03/30 11:37:13;;;;;;;1.77;1.67;;;20.50;99.90;;;;;;5216793;28;20037;-76
2022/03/30 11:39:49;;;;;;;0.93;0.93;;;20.90;99.90;;;;;;5223829;28;20028;-77
2022/03/30 11:42:24;;;;;;;1.23;1.23;;;20.70;99.90;;;;;;5210503;28;20063;-76
2022/03/30 11:45:15;;;;;;;1.48;1.45;;;19.70;99.90;;;;;;5204104;28;20056;-76
2022/03/30 11:47:54;;;;;;;1.67;1.52;;;19.70;99.90;;;;;;5231266;28;20046;-76
2022/03/30 11:50:33;;;;;;;1.25;1.15;;;19.80;99.90;;;;;;5223179;28;20331;-76
2022/03/30 11:53:26;;;;;;;1.17;1.17;;;20.20;99.90;;;;;;5245059;28;20029;-78
2022/03/30 11:56:05;;;;;;;1.75;1.55;;;19.40;99.90;;;;;;5235768;28;20036;-78
2022/03/30 11:58:45;;;;;;;4.43;4.00;;;19.30;99.90;;;;;;5240418;28;20035;-79
2022/03/30 12:01:23;;;;;;;1.92;1.83;;;20.00;99.90;;;;;;5247655;28;20481;-77
2022/03/30 12:03:55;;;;;;;1.17;1.05;;;20.10;99.90;;;;;;5240416;28;20039;-78
2022/03/30 12:06:27;;;;;;;2.40;2.22;;;19.90;99.90;;;;;;5218961;28;20362;-78
2022/03/30 12:09:00;;;;;;;1.27;1.27;;;20.50;99.90;;;;;;5231406;28;20021;-77
2022/03/30 12:11:35;;;;;;;1.60;1.55;;;21.20;99.90;;;;;;5234053;28;20140;-77
2022/03/30 12:14:11;;;;;;;1.45;1.35;;;21.20;99.90;;;;;;5229547;28;20037;-77
2022/03/30 12:16:43;;;;;;;1.02;1.02;;;21.20;99.90;;;;;;5248570;28;20036;-77
2022/03/30 12:19:19;;;;;;;0.70;0.70;;;21.00;99.90;;;;;;5230136;28;20061;-74
2022/03/30 12:21:55;;;;;;;2.03;1.92;;;20.60;99.90;;;;;;5236465;28;20031;-78
2022/03/30 12:24:33;;;;;;;1.33;1.20;;;19.40;99.90;;;;;;5258117;28;20039;-77
2022/03/30 12:27:07;;;;;;;1.90;1.80;;;19.00;99.90;;;;;;5234825;28;20027;-76
2022/03/30 12:29:44;;;;;;;1.88;1.77;;;18.80;99.90;;;;;;5238885;28;20191;-77
2022/03/30 12:32:23;;;;;;;1.80;1.42;;;19.10;99.90;;;;;;5244071;28;20058;-75
2022/03/30 12:35:07;;;;;;;2.30;2.08;;;19.20;99.90;;;;;;5232164;28;20132;-74
2022/03/30 12:37:43;;;;;;;1.70;1.65;;;18.70;99.90;;;;;;5240127;28;20025;-78
2022/03/30 12:40:27;;;;;;;1.30;1.25;;;18.80;99.90;;;;;;5233376;28;20035;-77
2022/03/30 12:43:00;;;;;;;2.10;2.00;;;18.70;99.90;;;;;;5232502;28;20039;-79
2022/03/30 12:45:53;;;;;;;2.30;2.17;;;17.90;99.90;;;;;;5230901;28;20360;-75
2022/03/30 12:48:34;;;;;;;1.60;1.52;;;17.90;99.90;;;;;;5242146;28;20336;-78
2022/03/30 12:51:19;;;;;;;1.17;1.17;;;18.00;99.90;;;;;;5242860;28;20023;-78
2022/03/30 12:53:57;;;;;;;;;;;17.80;99.90;;;;;;5234915;28;20048;-76
2022/03/30 12:56:34;;;;;;;2.80;2.42;;;18.00;99.90;;;;;;5213996;28;19901;-78
2022/03/30 12:59:08;;;;;;;1.75;1.65;;;17.90;99.90;;;;;;5241235;28;20036;-80
2022/03/30 13:01:45;;;;;;;0.82;0.82;;;17.90;99.90;;;;;;5227859;28;20873;-79
2022/03/30 13:04:38;;;;;;;1.85;1.75;;;18.00;99.90;;;;;;5231346;28;20037;-81
2022/03/30 13:07:12;;;;;;;5.05;1.73;;;17.70;99.90;;;;;;5233967;28;20055;-79
2022/03/30 13:10:11;;;;;;;2.10;2.00;;;17.80;99.90;;;;;;5233762;28;20032;-77
2022/03/30 13:12:55;;;;;;;1.80;1.70;;;18.40;99.90;;;;;;5241990;28;20041;-78
2022/03/30 13:15:35;;;;;;;1.33;1.33;;;18.70;99.90;;;;;;5232886;28;20034;-74
2022/03/30 13:18:08;;;;;;;2.13;2.03;;;19.00;99.90;;;;;;5240832;28;20047;-78
2022/03/30 13:20:57;;;;;;;1.33;1.33;;;18.90;99.90;;;;;;5234177;28;20032;-78
2022/03/30 13:23:48;;;;;;;0.80;0.80;;;18.60;99.90;;;;;;5234483;28;20032;-77
2022/03/30 13:26:33;;;;;;;2.05;1.95;;;18.60;99.90;;;;;;5241527;28;20040;-77
2022/03/30 13:29:09;;;;;;;1.38;1.33;;;18.70;99.90;;;;;;5220584;28;20045;-76
2022/03/30 13:31:43;;;;;;;1.30;1.30;;;18.30;99.90;;;;;;5234209;28;20049;-76
2022/03/30 13:34:18;;;;;;;1.77;1.67;;;18.30;99.90;;;;;;5240763;28;20036;-78
2022/03/30 13:36:53;;;;;;;1.83;1.50;;;18.20;99.90;;;;;;5239728;28;20054;-80
2022/03/30 13:39:28;;;;;;;0.93;0.93;;;18.20;99.90;;;;;;5224855;28;20040;-79
2022/03/30 13:42:03;;;;;;;1.70;1.60;;;17.80;99.90;;;;;;5237895;28;20638;-78
2022/03/30 13:44:35;;;;;;;0.75;0.75;;;17.70;99.90;;;;;;5224323;28;20462;-77
2022/03/30 13:47:06;;;;;;;0.65;0.65;;;17.60;99.90;;;;;;5214728;28;20044;-77